Time;durP1;ratioP1;P1;durP2;ratioP2;P2;SDS_P1;SDS_P2;PMS_P1;PMS_P2;Temp;Humidity;BMP_temperature;BMP_pressure;BME280_temperature;BME280_humidity;BME280_pressure;Samples;Min_cycle;Max_cycle;Signal;HPM_P1;HPM_P2
2022/03/10 00:02:06;;;;;;;0.10;0.10;;;4.40;88.00;;;;;;4988878;28;20191;-84
2022/03/10 00:04:32;;;;;;;0.30;0.30;;;4.50;88.40;;;;;;4996005;28;20208;-83
2022/03/10 00:06:58;;;;;;;1.43;1.43;;;4.50;89.30;;;;;;5007507;28;20425;-89
2022/03/10 00:09:24;;;;;;;0.50;0.50;;;4.60;90.00;;;;;;4991663;28;20189;-87
2022/03/10 00:11:49;;;;;;;1.50;1.50;;;4.70;90.90;;;;;;4983050;28;20192;-87
2022/03/10 00:14:14;;;;;;;0.20;0.20;;;4.80;90.00;;;;;;5003234;28;20192;-87
2022/03/10 00:16:40;;;;;;;0.10;0.10;;;4.90;90.20;;;;;;5002869;28;20220;-93
2022/03/10 00:19:06;;;;;;;0.30;0.30;;;4.90;90.20;;;;;;5002539;28;20197;-86
2022/03/10 00:21:31;;;;;;;0.10;0.10;;;4.90;90.50;;;;;;4998134;28;20865;-83
2022/03/10 00:23:57;;;;;;;0.10;0.10;;;4.90;90.10;;;;;;4988192;28;20283;-82
2022/03/10 00:26:23;;;;;;;0.17;0.17;;;4.90;90.00;;;;;;4991231;28;20239;-76
2022/03/10 00:28:49;;;;;;;0.10;0.10;;;4.80;90.00;;;;;;4996727;28;20196;-74
2022/03/10 00:31:14;;;;;;;0.10;0.10;;;4.70;90.60;;;;;;4994260;28;20669;-74
2022/03/10 00:33:40;;;;;;;7.10;6.90;;;4.70;91.20;;;;;;4996461;28;20207;-75
2022/03/10 00:36:06;;;;;;;0.10;0.10;;;4.70;90.50;;;;;;4988824;28;20220;-74
2022/03/10 00:38:31;;;;;;;0.10;0.10;;;4.60;91.40;;;;;;5002803;28;20242;-75
2022/03/10 00:40:59;;;;;;;0.10;0.10;;;4.50;91.20;;;;;;4991454;28;20200;-75
2022/03/10 00:43:24;;;;;;;0.10;0.10;;;4.40;91.90;;;;;;4993007;28;20200;-75
2022/03/10 00:45:50;;;;;;;0.20;0.20;;;4.40;93.10;;;;;;4986465;28;20205;-75
2022/03/10 00:48:15;;;;;;;0.10;0.10;;;4.40;92.90;;;;;;4995551;28;20196;-78
2022/03/10 00:50:41;;;;;;;0.10;0.10;;;4.30;92.90;;;;;;4985407;28;20227;-74
2022/03/10 00:53:07;;;;;;;0.80;0.80;;;4.30;92.80;;;;;;4992967;28;20256;-76
2022/03/10 00:55:32;;;;;;;0.50;0.50;;;4.20;93.30;;;;;;4995513;28;20298;-77
2022/03/10 00:57:57;;;;;;;0.20;0.20;;;4.10;93.20;;;;;;4987236;28;20192;-77
2022/03/10 01:00:25;;;;;;;0.20;0.20;;;4.00;94.00;;;;;;4985873;28;20643;-76
2022/03/10 01:02:51;;;;;;;0.30;0.30;;;4.00;94.80;;;;;;4995830;28;20192;-76
2022/03/10 01:05:16;;;;;;;0.13;0.13;;;4.00;94.70;;;;;;4997110;28;20325;-75
2022/03/10 01:07:42;;;;;;;0.10;0.10;;;4.00;95.30;;;;;;4990233;28;20206;-78
2022/03/10 01:10:08;;;;;;;0.40;0.40;;;4.00;95.80;;;;;;4994432;28;20216;-78
2022/03/10 01:12:36;;;;;;;0.20;0.20;;;3.90;95.80;;;;;;4990551;28;20197;-78
2022/03/10 01:15:02;;;;;;;0.10;0.10;;;3.90;96.70;;;;;;4985632;28;20288;-74
2022/03/10 01:17:28;;;;;;;0.10;0.10;;;3.90;96.80;;;;;;4987353;28;20268;-78
2022/03/10 01:19:54;;;;;;;0.20;0.20;;;3.80;97.00;;;;;;4989304;28;20689;-76
2022/03/10 01:22:19;;;;;;;0.73;0.73;;;3.70;96.40;;;;;;5005103;28;20193;-74
2022/03/10 01:24:45;;;;;;;0.30;0.30;;;3.70;97.30;;;;;;4991980;28;20220;-74
2022/03/10 01:27:11;;;;;;;1.37;1.37;;;3.70;97.50;;;;;;5015349;28;20754;-75
2022/03/10 01:29:36;;;;;;;0.20;0.20;;;3.60;97.30;;;;;;5013505;28;20188;-75
2022/03/10 01:32:02;;;;;;;0.10;0.10;;;3.60;97.50;;;;;;5015150;28;20242;-75
2022/03/10 01:34:28;;;;;;;0.20;0.20;;;3.30;98.10;;;;;;5020173;28;20678;-74
2022/03/10 01:36:54;;;;;;;0.10;0.10;;;3.30;98.70;;;;;;5003965;28;20570;-75
2022/03/10 01:39:19;;;;;;;0.10;0.10;;;3.20;99.00;;;;;;5007412;28;20188;-74
2022/03/10 01:41:45;;;;;;;0.10;0.10;;;3.20;99.70;;;;;;5024060;28;20258;-72
2022/03/10 01:44:11;;;;;;;0.10;0.10;;;3.10;99.90;;;;;;5014258;28;20192;-74
2022/03/10 01:46:37;;;;;;;0.10;0.10;;;3.20;99.90;;;;;;5015529;28;20204;-75
2022/03/10 01:49:05;;;;;;;0.30;0.30;;;3.20;99.90;;;;;;5018082;28;20194;-76
2022/03/10 01:51:31;;;;;;;0.10;0.10;;;3.20;99.90;;;;;;5006189;28;20204;-76
2022/03/10 01:53:57;;;;;;;2.73;2.73;;;2.90;99.90;;;;;;5014915;28;20289;-75
2022/03/10 01:56:23;;;;;;;0.10;0.10;;;2.90;99.90;;;;;;5012592;28;20326;-81
2022/03/10 01:58:51;;;;;;;0.10;0.10;;;3.10;99.90;;;;;;5016154;28;20195;-78
2022/03/10 02:01:17;;;;;;;0.10;0.10;;;3.10;99.90;;;;;;5012067;28;21204;-81
2022/03/10 02:03:43;;;;;;;0.20;0.20;;;3.10;99.90;;;;;;4988419;28;20598;-80
2022/03/10 02:06:12;;;;;;;1.03;1.03;;;3.20;99.90;;;;;;5003706;28;20207;-84
2022/03/10 02:11:23;;;;;;;0.10;0.10;;;3.20;99.90;;;;;;5023469;28;20288;-76
2022/03/10 02:13:48;;;;;;;0.20;0.20;;;3.20;99.90;;;;;;5022731;28;20222;-77
2022/03/10 02:19:00;;;;;;;0.10;0.10;;;3.20;99.90;;;;;;5005388;28;20191;-75
2022/03/10 02:21:26;;;;;;;0.10;0.10;;;3.10;99.90;;;;;;5012945;28;20568;-75
2022/03/10 02:23:53;;;;;;;0.10;0.10;;;3.10;99.90;;;;;;5022477;28;20195;-75
2022/03/10 02:26:18;;;;;;;6.13;5.97;;;3.10;99.90;;;;;;5011521;28;20266;-75
2022/03/10 02:28:44;;;;;;;0.10;0.10;;;3.10;99.90;;;;;;5008284;28;20953;-75
2022/03/10 02:31:10;;;;;;;0.10;0.10;;;3.10;99.90;;;;;;5003955;28;20294;-81
2022/03/10 02:33:35;;;;;;;0.30;0.30;;;3.00;99.90;;;;;;5023937;28;20188;-80
2022/03/10 02:36:02;;;;;;;0.10;0.10;;;3.00;99.90;;;;;;5015889;28;20227;-74
2022/03/10 02:38:28;;;;;;;0.10;0.10;;;3.00;99.90;;;;;;5019218;28;20199;-75
2022/03/10 02:40:53;;;;;;;0.83;0.83;;;3.00;99.90;;;;;;5016557;28;20204;-83
2022/03/10 02:43:20;;;;;;;0.10;0.10;;;3.00;99.90;;;;;;5017795;28;20187;-81
2022/03/10 02:45:46;;;;;;;0.10;0.10;;;3.00;99.90;;;;;;5006913;28;20223;-69
2022/03/10 02:48:13;;;;;;;0.10;0.10;;;3.00;99.90;;;;;;5019515;28;20306;-83
2022/03/10 02:50:39;;;;;;;0.10;0.10;;;2.90;99.90;;;;;;5006822;28;20644;-82
2022/03/10 02:53:07;;;;;;;0.10;0.10;;;2.90;99.90;;;;;;5011584;28;20197;-78
2022/03/10 02:55:33;;;;;;;0.10;0.10;;;2.70;99.90;;;;;;5005267;28;20773;-74
2022/03/10 02:57:58;;;;;;;0.10;0.10;;;2.70;99.90;;;;;;5020968;28;20274;-81
2022/03/10 03:00:24;;;;;;;0.20;0.20;;;2.80;99.90;;;;;;5018626;28;20562;-76
2022/03/10 03:02:49;;;;;;;0.10;0.10;;;2.70;99.90;;;;;;5020136;28;20203;-75
2022/03/10 03:05:16;;;;;;;0.40;0.40;;;2.70;99.90;;;;;;5013338;28;20678;-77
2022/03/10 03:07:43;;;;;;;1.30;1.30;;;2.70;99.90;;;;;;5018303;28;20199;-79
2022/03/10 03:10:08;;;;;;;0.10;0.10;;;2.70;99.90;;;;;;5005620;28;20200;-83
2022/03/10 03:12:34;;;;;;;0.10;0.10;;;2.70;99.90;;;;;;5012324;28;20701;-80
2022/03/10 03:15:00;;;;;;;0.10;0.10;;;2.70;99.90;;;;;;5004946;28;20319;-81
2022/03/10 03:17:26;;;;;;;0.10;0.10;;;2.70;99.90;;;;;;5011953;28;20207;-78
2022/03/10 03:19:52;;;;;;;0.10;0.10;;;2.80;99.90;;;;;;5008492;28;20692;-81
2022/03/10 03:22:18;;;;;;;0.10;0.10;;;2.70;99.90;;;;;;5019543;28;20203;-76
2022/03/10 03:24:45;;;;;;;0.10;0.10;;;2.70;99.90;;;;;;5009325;28;20306;-87
2022/03/10 03:27:11;;;;;;;0.10;0.10;;;2.80;99.90;;;;;;5013751;28;20290;-86
2022/03/10 03:29:36;;;;;;;0.10;0.10;;;2.80;99.90;;;;;;5015227;28;20188;-87
2022/03/10 03:32:02;;;;;;;0.30;0.30;;;2.80;99.90;;;;;;5012975;28;20199;-78
2022/03/10 03:34:28;;;;;;;0.20;0.20;;;2.80;99.90;;;;;;5011803;28;20188;-85
2022/03/10 03:36:53;;;;;;;0.20;0.20;;;2.80;99.90;;;;;;5009282;28;21019;-87
2022/03/10 03:39:19;;;;;;;0.10;0.10;;;2.70;99.90;;;;;;5016162;28;20189;-82
2022/03/10 03:41:44;;;;;;;3.93;3.70;;;2.70;99.90;;;;;;5018212;28;20281;-80
2022/03/10 03:44:10;;;;;;;0.10;0.10;;;2.70;99.90;;;;;;5015815;28;20334;-80
2022/03/10 03:46:37;;;;;;;0.50;0.50;;;2.60;99.90;;;;;;5015167;28;20195;-78
2022/03/10 03:49:02;;;;;;;0.10;0.10;;;2.60;99.90;;;;;;5015168;28;20316;-79
2022/03/10 03:51:28;;;;;;;0.10;0.10;;;2.50;99.90;;;;;;5023887;28;20196;-80
2022/03/10 03:53:54;;;;;;;0.17;0.17;;;2.50;99.90;;;;;;5020926;28;20693;-88
2022/03/10 03:56:19;;;;;;;0.13;0.13;;;2.50;99.90;;;;;;5026119;28;20231;-87
2022/03/10 03:58:45;;;;;;;0.10;0.10;;;2.40;99.90;;;;;;5024973;28;20191;-88
2022/03/10 04:01:10;;;;;;;0.10;0.10;;;2.30;99.90;;;;;;5026066;28;20188;-88
2022/03/10 04:03:37;;;;;;;0.10;0.10;;;2.20;99.90;;;;;;5024238;28;20227;-80
2022/03/10 04:06:03;;;;;;;0.10;0.10;;;2.20;99.90;;;;;;5016582;28;20207;-77
2022/03/10 04:08:28;;;;;;;0.10;0.10;;;2.30;99.90;;;;;;5018065;28;20599;-81
2022/03/10 04:10:54;;;;;;;0.10;0.10;;;2.30;99.90;;;;;;5012958;28;20623;-75
2022/03/10 04:13:21;;;;;;;0.10;0.10;;;2.30;99.90;;;;;;5012440;28;20206;-80
2022/03/10 04:15:48;;;;;;;0.10;0.10;;;2.30;99.90;;;;;;5020752;28;20326;-83
2022/03/10 04:18:15;;;;;;;0.10;0.10;;;2.30;99.90;;;;;;5014912;28;20207;-78
2022/03/10 04:20:41;;;;;;;0.10;0.10;;;2.30;99.90;;;;;;5015263;28;20239;-80
2022/03/10 04:23:06;;;;;;;0.10;0.10;;;2.40;99.90;;;;;;5013614;28;20223;-80
2022/03/10 04:25:32;;;;;;;0.10;0.10;;;2.40;99.90;;;;;;5013601;28;20274;-83
2022/03/10 04:27:57;;;;;;;0.10;0.10;;;2.60;99.90;;;;;;5021338;28;20200;-87
2022/03/10 04:30:23;;;;;;;0.10;0.10;;;2.70;99.90;;;;;;5032009;28;20214;-89
2022/03/10 04:32:49;;;;;;;0.10;0.10;;;2.70;99.90;;;;;;5017530;28;20714;-82
2022/03/10 04:35:16;;;;;;;0.10;0.10;;;2.70;99.90;;;;;;5010782;28;20268;-84
2022/03/10 04:37:43;;;;;;;0.10;0.10;;;2.70;99.90;;;;;;5014993;28;20200;-86
2022/03/10 04:40:10;;;;;;;0.10;0.10;;;2.70;99.90;;;;;;5017913;28;20192;-87
2022/03/10 04:42:38;;;;;;;0.10;0.10;;;2.70;99.90;;;;;;5014723;28;20801;-82
2022/03/10 04:45:05;;;;;;;0.10;0.10;;;2.70;99.90;;;;;;5014963;28;20215;-81
2022/03/10 04:47:31;;;;;;;0.10;0.10;;;2.80;99.90;;;;;;5012051;28;20207;-80
2022/03/10 04:49:57;;;;;;;0.43;0.43;;;2.70;99.90;;;;;;5018532;28;20695;-82
2022/03/10 04:52:26;;;;;;;0.10;0.10;;;2.80;99.90;;;;;;5014937;28;20983;-79
2022/03/10 04:54:51;;;;;;;0.10;0.10;;;2.80;99.90;;;;;;5010844;28;20203;-81
2022/03/10 04:57:17;;;;;;;0.20;0.20;;;2.80;99.90;;;;;;5011549;28;20590;-80
2022/03/10 04:59:42;;;;;;;0.10;0.10;;;2.80;99.90;;;;;;5017972;28;20210;-85
2022/03/10 05:02:08;;;;;;;0.10;0.10;;;2.80;99.90;;;;;;5018242;28;20226;-82
2022/03/10 05:04:33;;;;;;;0.10;0.10;;;2.70;99.90;;;;;;5011884;28;20226;-78
2022/03/10 05:06:59;;;;;;;0.10;0.10;;;2.70;99.90;;;;;;5011786;28;20223;-79
2022/03/10 05:09:24;;;;;;;0.10;0.10;;;2.70;99.90;;;;;;5014535;28;20183;-82
2022/03/10 05:11:50;;;;;;;3.70;3.60;;;2.70;99.90;;;;;;5010033;28;20588;-84
2022/03/10 05:14:15;;;;;;;2.03;2.03;;;2.70;99.90;;;;;;5014813;28;20180;-82
2022/03/10 05:16:40;;;;;;;0.10;0.10;;;2.70;99.90;;;;;;5011979;28;20741;-84
2022/03/10 05:19:06;;;;;;;0.10;0.10;;;2.70;99.90;;;;;;5016205;28;20622;-78
2022/03/10 05:21:32;;;;;;;0.10;0.10;;;2.70;99.90;;;;;;5019727;28;20176;-77
2022/03/10 05:23:57;;;;;;;0.20;0.20;;;2.70;99.90;;;;;;5012886;28;20286;-79
2022/03/10 05:26:23;;;;;;;0.10;0.10;;;2.70;99.90;;;;;;5012274;28;20596;-78
2022/03/10 05:28:48;;;;;;;0.10;0.10;;;2.70;99.90;;;;;;5015053;28;20200;-82
2022/03/10 05:31:14;;;;;;;0.10;0.10;;;2.80;99.90;;;;;;5016731;28;20661;-86
2022/03/10 05:33:39;;;;;;;0.10;0.10;;;2.70;99.90;;;;;;5015502;28;20204;-85
2022/03/10 05:36:05;;;;;;;0.10;0.10;;;2.60;99.90;;;;;;5011758;28;20215;-85
2022/03/10 05:38:30;;;;;;;0.10;0.10;;;2.60;99.90;;;;;;5022582;28;20297;-87
2022/03/10 05:40:56;;;;;;;0.10;0.10;;;2.60;99.90;;;;;;5010311;28;20523;-80
2022/03/10 05:43:22;;;;;;;0.10;0.10;;;2.70;99.90;;;;;;5009373;28;20965;-83
2022/03/10 05:45:47;;;;;;;0.50;0.50;;;2.60;99.90;;;;;;5012569;28;20195;-80
2022/03/10 05:48:13;;;;;;;0.10;0.10;;;2.60;99.90;;;;;;5010985;28;20199;-79
2022/03/10 05:50:38;;;;;;;0.10;0.10;;;2.60;99.90;;;;;;5012307;28;20191;-80
2022/03/10 05:53:06;;;;;;;0.10;0.10;;;2.60;99.90;;;;;;5011084;28;21043;-78
2022/03/10 05:55:31;;;;;;;0.10;0.10;;;2.60;99.90;;;;;;5012283;28;20211;-81
2022/03/10 05:57:57;;;;;;;0.10;0.10;;;2.50;99.90;;;;;;5013461;28;20238;-79
2022/03/10 06:00:24;;;;;;;0.10;0.10;;;2.60;99.90;;;;;;5009623;28;20658;-78
2022/03/10 06:02:50;;;;;;;0.20;0.20;;;2.70;99.90;;;;;;5012197;28;20752;-79
2022/03/10 06:05:16;;;;;;;0.10;0.10;;;2.70;99.90;;;;;;5012481;28;20223;-81
2022/03/10 06:07:41;;;;;;;2.53;2.47;;;2.70;99.90;;;;;;5011447;28;20567;-79
2022/03/10 06:10:07;;;;;;;1.93;0.80;;;2.60;99.90;;;;;;5012269;28;20184;-80
2022/03/10 06:12:33;;;;;;;0.10;0.10;;;2.70;99.90;;;;;;5011589;28;20365;-78
2022/03/10 06:15:01;;;;;;;0.10;0.10;;;2.70;99.90;;;;;;5012581;28;20175;-79
2022/03/10 06:17:27;;;;;;;0.10;0.10;;;2.70;99.90;;;;;;5010611;28;20204;-79
2022/03/10 06:19:53;;;;;;;0.23;0.23;;;2.70;99.90;;;;;;5014941;28;20232;-79
2022/03/10 06:22:20;;;;;;;2.10;2.10;;;2.70;99.90;;;;;;5014265;28;20718;-81
2022/03/10 06:24:46;;;;;;;1.20;1.20;;;2.70;99.90;;;;;;5010989;28;20666;-79
2022/03/10 06:27:13;;;;;;;0.17;0.17;;;2.70;99.90;;;;;;5003963;28;20215;-80
2022/03/10 06:29:42;;;;;;;0.10;0.10;;;2.80;99.90;;;;;;5005915;28;20791;-80
2022/03/10 06:32:08;;;;;;;0.10;0.10;;;2.80;99.90;;;;;;5003167;28;20200;-80
2022/03/10 06:34:34;;;;;;;0.40;0.40;;;2.90;99.90;;;;;;5005397;28;20199;-80
2022/03/10 06:37:00;;;;;;;0.10;0.10;;;2.90;99.90;;;;;;5002810;28;20375;-78
2022/03/10 06:39:26;;;;;;;0.10;0.10;;;2.90;99.90;;;;;;5006938;28;20558;-79
2022/03/10 06:41:52;;;;;;;0.20;0.20;;;2.90;99.90;;;;;;5002540;28;20184;-79
2022/03/10 06:44:17;;;;;;;0.10;0.10;;;2.90;99.90;;;;;;5002173;28;20203;-78
2022/03/10 06:46:43;;;;;;;0.10;0.10;;;3.00;99.90;;;;;;5001453;28;20215;-80
2022/03/10 06:49:09;;;;;;;0.10;0.10;;;3.00;99.90;;;;;;5008332;28;20259;-78
2022/03/10 06:51:34;;;;;;;0.10;0.10;;;3.10;99.90;;;;;;5010529;28;20562;-78
2022/03/10 06:54:00;;;;;;;0.20;0.20;;;3.10;99.90;;;;;;5012684;28;20203;-78
2022/03/10 06:56:25;;;;;;;0.17;0.17;;;3.30;99.90;;;;;;5005244;28;20322;-79
2022/03/10 06:58:51;;;;;;;0.10;0.10;;;3.40;99.90;;;;;;5011691;28;20211;-79
2022/03/10 07:01:17;;;;;;;0.17;0.17;;;3.50;99.90;;;;;;5020664;28;20276;-79
2022/03/10 07:03:42;;;;;;;0.30;0.30;;;3.40;99.90;;;;;;5014198;28;20289;-77
2022/03/10 07:06:08;;;;;;;2.00;2.00;;;3.30;99.90;;;;;;5004231;28;20197;-79
2022/03/10 07:08:34;;;;;;;0.10;0.10;;;3.30;99.90;;;;;;5008891;28;20443;-79
2022/03/10 07:11:00;;;;;;;0.20;0.20;;;3.40;99.90;;;;;;5011597;28;20191;-79
2022/03/10 07:13:26;;;;;;;0.10;0.10;;;3.40;99.90;;;;;;5011592;28;20210;-78
2022/03/10 07:15:51;;;;;;;0.10;0.10;;;3.50;99.90;;;;;;5008071;28;20216;-77
2022/03/10 07:18:17;;;;;;;0.10;0.10;;;3.60;99.90;;;;;;5002565;28;20824;-77
2022/03/10 07:20:42;;;;;;;0.70;0.70;;;3.70;99.90;;;;;;5003702;28;20207;-78
2022/03/10 07:23:08;;;;;;;0.10;0.10;;;3.90;99.90;;;;;;5002262;28;20208;-78
2022/03/10 07:25:33;;;;;;;0.10;0.10;;;3.80;99.90;;;;;;5006040;28;20560;-79
2022/03/10 07:27:59;;;;;;;0.10;0.10;;;3.80;99.90;;;;;;4997775;28;20228;-79
2022/03/10 07:30:24;;;;;;;0.10;0.10;;;3.90;99.90;;;;;;4998890;28;20286;-80
2022/03/10 07:32:50;;;;;;;0.10;0.10;;;4.00;99.90;;;;;;4982653;28;20300;-79
2022/03/10 07:35:15;;;;;;;0.20;0.20;;;4.00;99.90;;;;;;4992162;28;20200;-78
2022/03/10 07:37:41;;;;;;;1.70;1.27;;;4.20;99.90;;;;;;4999880;28;20714;-77
2022/03/10 07:40:07;;;;;;;0.73;0.73;;;4.20;99.90;;;;;;4992916;28;20200;-77
2022/03/10 07:42:32;;;;;;;2.00;1.90;;;4.40;99.90;;;;;;4998860;28;20449;-78
2022/03/10 07:44:58;;;;;;;0.77;0.77;;;4.40;99.90;;;;;;4987639;28;20239;-78
2022/03/10 07:47:23;;;;;;;0.10;0.10;;;4.30;99.90;;;;;;4993869;28;20220;-77
2022/03/10 07:49:49;;;;;;;1.47;1.47;;;4.40;99.90;;;;;;4991148;28;20271;-77
2022/03/10 07:52:14;;;;;;;0.10;0.10;;;4.60;99.90;;;;;;4996494;28;20200;-76
2022/03/10 07:54:40;;;;;;;0.23;0.23;;;4.50;99.90;;;;;;4989785;28;20303;-76
2022/03/10 07:57:05;;;;;;;0.10;0.10;;;4.60;99.90;;;;;;5002867;28;20216;-77
2022/03/10 07:59:31;;;;;;;0.10;0.10;;;4.50;99.90;;;;;;4984631;28;20236;-78
2022/03/10 08:01:56;;;;;;;11.87;5.73;;;4.50;99.90;;;;;;4992930;28;20679;-78
2022/03/10 08:04:22;;;;;;;0.10;0.10;;;4.50;99.90;;;;;;4994257;28;20291;-77
2022/03/10 08:06:48;;;;;;;0.10;0.10;;;4.70;99.90;;;;;;4997675;28;20758;-77
2022/03/10 08:09:13;;;;;;;0.10;0.10;;;4.70;99.90;;;;;;4991231;28;20248;-78
2022/03/10 08:11:40;;;;;;;0.77;0.77;;;4.80;99.90;;;;;;4988028;28;20188;-78
2022/03/10 08:14:06;;;;;;;0.10;0.10;;;5.00;99.90;;;;;;4996927;28;20208;-79
2022/03/10 08:16:32;;;;;;;0.10;0.10;;;5.10;99.90;;;;;;5001095;28;20219;-77
2022/03/10 08:18:59;;;;;;;0.10;0.10;;;5.10;99.90;;;;;;4985282;28;20710;-78
2022/03/10 08:21:25;;;;;;;0.10;0.10;;;5.20;99.90;;;;;;4985497;28;20181;-78
2022/03/10 08:23:50;;;;;;;0.10;0.10;;;5.00;99.90;;;;;;4998381;28;20275;-78
2022/03/10 08:26:17;;;;;;;0.10;0.10;;;5.00;99.90;;;;;;4987869;28;20379;-79
2022/03/10 08:28:42;;;;;;;0.10;0.10;;;5.00;99.90;;;;;;4986966;28;20283;-84
2022/03/10 08:31:08;;;;;;;0.10;0.10;;;5.10;99.90;;;;;;4990499;28;20347;-84
2022/03/10 08:33:34;;;;;;;0.20;0.20;;;5.20;99.90;;;;;;4996131;28;20627;-83
2022/03/10 08:35:59;;;;;;;0.57;0.57;;;5.10;99.90;;;;;;4992093;28;20216;-88
2022/03/10 08:38:30;;;;;;;0.10;0.10;;;5.10;99.90;;;;;;4999418;28;20192;-70
2022/03/10 08:40:55;;;;;;;0.20;0.20;;;5.10;99.90;;;;;;5003228;28;20212;-88
2022/03/10 08:43:23;;;;;;;0.47;0.47;;;5.20;99.90;;;;;;4999110;28;20232;-88
2022/03/10 08:45:49;;;;;;;0.10;0.10;;;5.30;99.90;;;;;;4998568;28;20203;-79
2022/03/10 08:48:14;;;;;;;0.10;0.10;;;5.40;99.90;;;;;;4991428;28;20192;-77
2022/03/10 08:50:41;;;;;;;0.20;0.20;;;5.40;99.90;;;;;;5003168;28;20243;-81
2022/03/10 08:53:07;;;;;;;0.10;0.10;;;5.70;99.90;;;;;;4998189;28;20331;-83
2022/03/10 08:55:33;;;;;;;0.20;0.20;;;5.70;99.90;;;;;;4991816;28;20777;-80
2022/03/10 08:58:00;;;;;;;0.20;0.20;;;5.60;99.90;;;;;;4998243;28;20197;-82
2022/03/10 09:00:25;;;;;;;0.10;0.10;;;5.60;99.90;;;;;;4998742;28;20216;-82
2022/03/10 09:02:51;;;;;;;0.57;0.57;;;5.80;99.90;;;;;;4991152;28;20176;-80
2022/03/10 09:05:17;;;;;;;0.10;0.10;;;5.90;99.90;;;;;;4995456;28;20197;-77
2022/03/10 09:07:43;;;;;;;4.43;4.23;;;5.90;99.90;;;;;;4992602;28;20740;-79
2022/03/10 09:10:10;;;;;;;0.10;0.10;;;6.00;99.90;;;;;;4999708;28;20192;-80
2022/03/10 09:12:37;;;;;;;0.10;0.10;;;5.90;99.90;;;;;;4990849;28;20335;-78
2022/03/10 09:15:03;;;;;;;0.10;0.10;;;5.90;99.90;;;;;;4992368;28;20192;-79
2022/03/10 09:17:28;;;;;;;0.90;0.90;;;6.00;99.90;;;;;;4985453;28;20235;-79
2022/03/10 09:19:54;;;;;;;0.10;0.10;;;6.20;99.90;;;;;;4986465;28;20663;-80
2022/03/10 09:22:20;;;;;;;0.17;0.17;;;6.10;99.90;;;;;;4997250;28;20205;-80
2022/03/10 09:24:46;;;;;;;0.20;0.20;;;6.30;99.90;;;;;;4987025;28;20205;-81
2022/03/10 09:27:11;;;;;;;0.10;0.10;;;6.40;99.90;;;;;;5018951;28;20308;-81
2022/03/10 09:29:37;;;;;;;0.10;0.10;;;6.40;99.90;;;;;;5023312;28;20234;-80
2022/03/10 09:32:03;;;;;;;0.10;0.10;;;6.50;99.90;;;;;;5016562;28;20204;-80
2022/03/10 09:34:28;;;;;;;0.10;0.10;;;6.70;99.90;;;;;;5006198;28;20670;-81
2022/03/10 09:36:54;;;;;;;0.10;0.10;;;6.70;99.90;;;;;;5016394;28;20215;-81
2022/03/10 09:39:20;;;;;;;0.30;0.30;;;6.80;99.90;;;;;;5006123;28;20192;-80
2022/03/10 09:41:45;;;;;;;3.30;1.87;;;6.80;99.90;;;;;;5015548;28;20257;-80
2022/03/10 09:44:14;;;;;;;0.33;0.33;;;6.90;99.90;;;;;;5021226;28;20593;-81
2022/03/10 09:46:41;;;;;;;0.13;0.13;;;6.80;99.90;;;;;;5012133;28;20212;-77
2022/03/10 09:49:06;;;;;;;0.10;0.10;;;6.90;99.90;;;;;;5005540;28;20204;-77
2022/03/10 09:51:32;;;;;;;0.20;0.20;;;7.00;99.90;;;;;;5012821;28;20249;-77
2022/03/10 09:53:57;;;;;;;0.20;0.20;;;7.20;99.90;;;;;;5023016;28;20569;-80
2022/03/10 09:56:23;;;;;;;0.10;0.10;;;7.20;99.90;;;;;;5011508;28;20220;-80
2022/03/10 09:58:48;;;;;;;0.77;0.77;;;7.20;99.90;;;;;;5018265;28;20261;-80
2022/03/10 10:01:14;;;;;;;0.20;0.20;;;7.10;99.90;;;;;;5019650;28;20195;-79
2022/03/10 10:03:39;;;;;;;0.10;0.10;;;7.20;99.90;;;;;;5010897;28;20188;-78
2022/03/10 10:06:05;;;;;;;0.10;0.10;;;7.20;99.90;;;;;;5008968;28;20200;-80
2022/03/10 10:08:32;;;;;;;0.20;0.20;;;7.30;99.90;;;;;;5012474;28;20566;-82
2022/03/10 10:11:00;;;;;;;0.10;0.10;;;7.40;99.90;;;;;;5008022;28;20203;-82
2022/03/10 10:13:35;;;;;;;1.20;1.10;;;7.50;99.90;;;;;;5017173;28;20192;-81
2022/03/10 10:16:15;;;;;;;0.23;0.23;;;7.80;99.90;;;;;;5014364;28;20635;-82
2022/03/10 10:18:41;;;;;;;0.10;0.10;;;7.80;99.90;;;;;;5020048;28;20191;-79
2022/03/10 10:21:09;;;;;;;0.20;0.20;;;7.80;99.90;;;;;;5017369;28;20536;-79
2022/03/10 10:23:37;;;;;;;0.10;0.10;;;7.80;99.90;;;;;;5011731;28;20196;-79
2022/03/10 10:26:07;;;;;;;0.20;0.20;;;8.00;99.90;;;;;;5007646;28;20227;-79
2022/03/10 10:28:35;;;;;;;0.10;0.10;;;7.90;99.90;;;;;;5014341;28;20294;-81
2022/03/10 10:31:15;;;;;;;0.10;0.10;;;8.00;99.90;;;;;;5015748;28;20231;-80
2022/03/10 10:33:42;;;;;;;0.10;0.10;;;8.10;99.90;;;;;;5015909;28;20222;-80
2022/03/10 10:36:16;;;;;;;0.10;0.10;;;8.00;99.90;;;;;;5015604;28;20221;-80
2022/03/10 10:38:43;;;;;;;0.40;0.40;;;8.20;99.90;;;;;;5015879;28;20279;-79
2022/03/10 10:41:27;;;;;;;0.10;0.10;;;8.30;99.90;;;;;;5021527;28;20223;-82
2022/03/10 10:44:05;;;;;;;0.10;0.10;;;8.40;99.90;;;;;;5018195;28;20234;-81
2022/03/10 10:46:39;;;;;;;0.10;0.10;;;8.40;99.90;;;;;;4987389;28;20257;-81
2022/03/10 10:49:14;;;;;;;1.63;1.60;;;8.40;99.90;;;;;;5019379;28;20649;-79
2022/03/10 10:51:42;;;;;;;0.10;0.10;;;8.30;99.90;;;;;;5021152;28;20736;-79
2022/03/10 10:54:10;;;;;;;0.10;0.10;;;8.30;99.90;;;;;;5012453;28;20274;-80
2022/03/10 10:56:45;;;;;;;0.10;0.10;;;8.30;99.90;;;;;;5009706;28;20212;-82
2022/03/10 10:59:45;;;;;;;0.30;0.30;;;8.70;99.90;;;;;;5015134;28;20550;-83
2022/03/10 11:02:16;;;;;;;2.83;2.73;;;8.70;99.90;;;;;;5003995;28;20212;-83
2022/03/10 11:04:46;;;;;;;1.30;1.07;;;8.90;99.90;;;;;;5020350;28;20191;-81
2022/03/10 11:07:12;;;;;;;0.10;0.10;;;8.60;99.90;;;;;;5009569;28;20212;-83
2022/03/10 11:09:39;;;;;;;0.10;0.10;;;8.30;99.90;;;;;;5005905;28;20296;-83
2022/03/10 11:12:06;;;;;;;0.10;0.10;;;8.40;99.90;;;;;;5003929;28;20213;-83
2022/03/10 11:14:31;;;;;;;0.10;0.10;;;8.50;99.90;;;;;;5006456;28;20766;-83
2022/03/10 11:16:58;;;;;;;0.10;0.10;;;8.30;99.90;;;;;;5012655;28;20223;-82
2022/03/10 11:19:25;;;;;;;0.10;0.10;;;8.40;99.90;;;;;;5023938;28;20189;-82
2022/03/10 11:22:01;;;;;;;0.10;0.10;;;8.50;99.90;;;;;;5015743;28;20220;-82
2022/03/10 11:24:43;;;;;;;0.10;0.10;;;8.60;99.60;;;;;;5017827;28;20215;-80
2022/03/10 11:27:19;;;;;;;0.10;0.10;;;8.60;99.90;;;;;;4992100;28;20229;-82
2022/03/10 11:29:53;;;;;;;0.20;0.20;;;8.60;99.70;;;;;;5005027;28;20287;-81
2022/03/10 11:32:24;;;;;;;0.10;0.10;;;8.60;99.90;;;;;;5009168;28;20209;-81
2022/03/10 11:34:53;;;;;;;0.10;0.10;;;8.50;99.90;;;;;;5009223;28;20610;-82
2022/03/10 11:37:40;;;;;;;0.10;0.10;;;8.50;99.90;;;;;;5014998;28;20219;-79
2022/03/10 11:40:07;;;;;;;0.20;0.20;;;8.60;99.80;;;;;;5006409;28;20288;-80
2022/03/10 11:42:34;;;;;;;0.13;0.13;;;8.80;99.20;;;;;;5022956;28;20313;-82
2022/03/10 11:45:10;;;;;;;0.10;0.10;;;8.90;98.80;;;;;;5022124;28;20194;-84
2022/03/10 11:47:37;;;;;;;0.10;0.10;;;9.20;98.30;;;;;;5018770;28;20227;-80
2022/03/10 11:50:22;;;;;;;0.10;0.10;;;9.70;97.30;;;;;;5017501;28;20616;-85
2022/03/10 11:53:06;;;;;;;0.10;0.10;;;10.10;96.60;;;;;;5020514;28;20196;-82
2022/03/10 11:55:51;;;;;;;0.10;0.10;;;10.50;95.00;;;;;;5018574;28;20728;-88
2022/03/10 11:58:20;;;;;;;0.10;0.10;;;10.70;94.50;;;;;;5017430;28;20215;-86
2022/03/10 12:00:56;;;;;;;0.77;0.77;;;10.70;94.40;;;;;;5015415;28;20214;-88
2022/03/10 12:03:24;;;;;;;0.10;0.10;;;10.80;94.10;;;;;;5014654;28;20206;-69
2022/03/10 12:05:55;;;;;;;0.10;0.10;;;11.00;93.20;;;;;;5020436;28;20212;-71
2022/03/10 12:08:23;;;;;;;0.10;0.10;;;10.90;93.00;;;;;;5019814;28;20217;-69
2022/03/10 12:10:49;;;;;;;22.03;18.20;;;11.00;92.50;;;;;;5012676;28;20209;-68
2022/03/10 12:13:22;;;;;;;26.83;19.67;;;10.90;91.80;;;;;;5013973;28;20201;-69
2022/03/10 12:15:48;;;;;;;22.93;18.87;;;11.20;91.10;;;;;;5012485;28;20220;-68
2022/03/10 12:18:19;;;;;;;22.33;18.63;;;11.50;91.00;;;;;;5013279;28;20217;-68
2022/03/10 12:20:46;;;;;;;24.43;18.57;;;11.60;90.80;;;;;;5017958;28;20189;-71
2022/03/10 12:23:15;;;;;;;27.93;20.90;;;11.60;90.10;;;;;;5021311;28;20201;-69
2022/03/10 12:25:43;;;;;;;27.47;20.13;;;11.80;90.20;;;;;;5007192;28;20244;-69
2022/03/10 12:28:29;;;;;;;27.93;21.07;;;11.60;89.00;;;;;;5016077;28;20217;-70
2022/03/10 12:31:29;;;;;;;22.87;17.80;;;11.70;89.00;;;;;;4988164;28;20695;-69
2022/03/10 12:33:59;;;;;;;26.70;20.93;;;12.10;88.30;;;;;;4958016;28;20241;-70
2022/03/10 12:36:36;;;;;;;26.80;20.53;;;12.20;87.70;;;;;;5008161;28;20218;-70
2022/03/10 12:39:11;;;;;;;25.20;18.03;;;12.50;85.70;;;;;;5018063;28;20188;-69
2022/03/10 12:41:39;;;;;;;29.63;22.93;;;12.00;85.20;;;;;;5013660;28;20198;-71
2022/03/10 12:44:07;;;;;;;27.33;19.70;;;12.20;85.70;;;;;;5020512;28;20192;-68
2022/03/10 12:46:35;;;;;;;27.10;21.67;;;12.40;82.90;;;;;;5013569;28;20285;-68
2022/03/10 12:49:23;;;;;;;30.73;22.47;;;12.30;81.20;;;;;;5015628;28;20182;-69
2022/03/10 12:51:49;;;;;;;29.57;21.83;;;12.60;80.20;;;;;;5011618;28;20257;-69
2022/03/10 12:54:15;;;;;;;28.27;22.53;;;12.80;79.90;;;;;;5025238;28;20289;-71
2022/03/10 12:56:54;;;;;;;36.27;23.27;;;13.20;78.20;;;;;;5016690;28;20230;-69
2022/03/10 12:59:34;;;;;;;30.23;21.70;;;13.80;77.80;;;;;;5015499;28;20393;-70
2022/03/10 13:02:18;;;;;;;32.53;22.83;;;13.70;73.80;;;;;;5004475;28;20666;-70